sensor_id;sensor_type;location;lat;lon;timestamp;P1;durP1;ratioP1;P2;durP2;ratioP2
70505;SDS011;58032;49.820;6.274;2023-04-23T00:01:17;10.57;;;6.20;;
70505;SDS011;58032;49.820;6.274;2023-04-23T00:03:44;10.05;;;6.13;;
70505;SDS011;58032;49.820;6.274;2023-04-23T00:06:14;12.10;;;6.03;;
70505;SDS011;58032;49.820;6.274;2023-04-23T00:08:43;9.90;;;5.95;;
70505;SDS011;58032;49.820;6.274;2023-04-23T00:11:10;11.48;;;6.07;;
70505;SDS011;58032;49.820;6.274;2023-04-23T00:13:37;10.32;;;6.18;;
70505;SDS011;58032;49.820;6.274;2023-04-23T00:16:04;9.40;;;5.53;;
70505;SDS011;58032;49.820;6.274;2023-04-23T00:18:31;9.05;;;5.70;;
70505;SDS011;58032;49.820;6.274;2023-04-23T00:20:58;9.80;;;6.03;;
70505;SDS011;58032;49.820;6.274;2023-04-23T00:23:26;12.85;;;6.20;;
70505;SDS011;58032;49.820;6.274;2023-04-23T00:25:53;10.98;;;5.82;;
70505;SDS011;58032;49.820;6.274;2023-04-23T00:28:20;9.73;;;5.30;;
70505;SDS011;58032;49.820;6.274;2023-04-23T00:30:47;10.23;;;5.38;;
70505;SDS011;58032;49.820;6.274;2023-04-23T00:33:14;11.77;;;6.30;;
70505;SDS011;58032;49.820;6.274;2023-04-23T00:35:41;10.60;;;5.60;;
70505;SDS011;58032;49.820;6.274;2023-04-23T00:38:08;10.73;;;6.20;;
70505;SDS011;58032;49.820;6.274;2023-04-23T00:40:35;10.18;;;5.90;;
70505;SDS011;58032;49.820;6.274;2023-04-23T00:43:02;10.35;;;5.60;;
70505;SDS011;58032;49.820;6.274;2023-04-23T00:45:29;11.23;;;5.63;;
70505;SDS011;58032;49.820;6.274;2023-04-23T00:47:57;10.95;;;5.43;;
70505;SDS011;58032;49.820;6.274;2023-04-23T00:50:24;11.38;;;5.70;;
70505;SDS011;58032;49.820;6.274;2023-04-23T00:52:51;12.93;;;6.03;;
70505;SDS011;58032;49.820;6.274;2023-04-23T00:55:18;11.40;;;6.32;;
70505;SDS011;58032;49.820;6.274;2023-04-23T00:57:46;10.80;;;5.67;;
70505;SDS011;58032;49.820;6.274;2023-04-23T01:00:13;10.00;;;5.63;;
70505;SDS011;58032;49.820;6.274;2023-04-23T01:02:41;9.98;;;5.93;;
70505;SDS011;58032;49.820;6.274;2023-04-23T01:05:09;12.70;;;6.05;;
70505;SDS011;58032;49.820;6.274;2023-04-23T01:07:37;10.15;;;6.00;;
70505;SDS011;58032;49.820;6.274;2023-04-23T01:10:05;13.07;;;6.65;;
70505;SDS011;58032;49.820;6.274;2023-04-23T01:12:32;14.13;;;6.15;;
70505;SDS011;58032;49.820;6.274;2023-04-23T01:15:00;10.85;;;5.88;;
70505;SDS011;58032;49.820;6.274;2023-04-23T01:17:29;10.15;;;6.00;;
70505;SDS011;58032;49.820;6.274;2023-04-23T01:19:55;9.57;;;5.97;;
70505;SDS011;58032;49.820;6.274;2023-04-23T01:22:22;10.13;;;6.10;;
70505;SDS011;58032;49.820;6.274;2023-04-23T01:24:50;11.73;;;6.00;;
70505;SDS011;58032;49.820;6.274;2023-04-23T01:27:18;11.43;;;6.10;;
70505;SDS011;58032;49.820;6.274;2023-04-23T01:29:46;11.45;;;5.90;;
70505;SDS011;58032;49.820;6.274;2023-04-23T01:32:13;8.85;;;5.55;;
70505;SDS011;58032;49.820;6.274;2023-04-23T01:34:40;11.43;;;5.88;;
70505;SDS011;58032;49.820;6.274;2023-04-23T01:37:08;8.60;;;5.38;;
70505;SDS011;58032;49.820;6.274;2023-04-23T01:39:35;9.88;;;5.50;;
70505;SDS011;58032;49.820;6.274;2023-04-23T01:42:02;11.50;;;5.32;;
70505;SDS011;58032;49.820;6.274;2023-04-23T01:44:32;10.70;;;5.50;;
70505;SDS011;58032;49.820;6.274;2023-04-23T01:46:59;10.07;;;5.43;;
70505;SDS011;58032;49.820;6.274;2023-04-23T01:49:26;9.82;;;5.50;;
70505;SDS011;58032;49.820;6.274;2023-04-23T01:51:53;9.70;;;5.78;;
70505;SDS011;58032;49.820;6.274;2023-04-23T01:54:20;9.32;;;5.32;;
70505;SDS011;58032;49.820;6.274;2023-04-23T01:56:48;10.02;;;5.32;;
70505;SDS011;58032;49.820;6.274;2023-04-23T01:59:20;10.60;;;5.40;;
70505;SDS011;58032;49.820;6.274;2023-04-23T02:01:48;12.35;;;6.43;;
70505;SDS011;58032;49.820;6.274;2023-04-23T02:04:16;8.38;;;4.85;;
70505;SDS011;58032;49.820;6.274;2023-04-23T02:06:44;10.25;;;5.47;;
70505;SDS011;58032;49.820;6.274;2023-04-23T02:09:13;10.25;;;5.45;;
70505;SDS011;58032;49.820;6.274;2023-04-23T02:11:39;10.17;;;5.50;;
70505;SDS011;58032;49.820;6.274;2023-04-23T02:14:07;9.90;;;5.22;;
70505;SDS011;58032;49.820;6.274;2023-04-23T02:16:35;10.98;;;5.80;;
70505;SDS011;58032;49.820;6.274;2023-04-23T02:19:03;10.63;;;5.70;;
70505;SDS011;58032;49.820;6.274;2023-04-23T02:21:30;10.05;;;5.65;;
70505;SDS011;58032;49.820;6.274;2023-04-23T02:23:57;11.10;;;6.03;;
70505;SDS011;58032;49.820;6.274;2023-04-23T02:26:23;10.20;;;6.07;;
70505;SDS011;58032;49.820;6.274;2023-04-23T02:28:50;10.60;;;5.78;;
70505;SDS011;58032;49.820;6.274;2023-04-23T02:31:18;12.45;;;6.00;;
70505;SDS011;58032;49.820;6.274;2023-04-23T02:33:46;9.90;;;5.78;;
70505;SDS011;58032;49.820;6.274;2023-04-23T02:36:13;11.48;;;5.88;;
70505;SDS011;58032;49.820;6.274;2023-04-23T02:38:40;11.07;;;5.85;;
70505;SDS011;58032;49.820;6.274;2023-04-23T02:41:07;12.50;;;6.00;;
70505;SDS011;58032;49.820;6.274;2023-04-23T02:43:34;10.88;;;5.85;;
70505;SDS011;58032;49.820;6.274;2023-04-23T02:46:01;10.57;;;5.80;;
70505;SDS011;58032;49.820;6.274;2023-04-23T02:48:36;9.70;;;5.73;;
70505;SDS011;58032;49.820;6.274;2023-04-23T02:51:05;10.65;;;5.75;;
70505;SDS011;58032;49.820;6.274;2023-04-23T02:53:32;11.60;;;5.85;;
70505;SDS011;58032;49.820;6.274;2023-04-23T02:55:59;11.02;;;6.10;;
70505;SDS011;58032;49.820;6.274;2023-04-23T02:58:28;12.15;;;5.93;;
70505;SDS011;58032;49.820;6.274;2023-04-23T03:00:58;8.77;;;5.77;;
70505;SDS011;58032;49.820;6.274;2023-04-23T03:03:26;11.05;;;5.45;;
70505;SDS011;58032;49.820;6.274;2023-04-23T03:05:58;11.20;;;6.18;;
70505;SDS011;58032;49.820;6.274;2023-04-23T03:08:27;10.80;;;6.10;;
70505;SDS011;58032;49.820;6.274;2023-04-23T03:10:54;12.27;;;6.88;;
70505;SDS011;58032;49.820;6.274;2023-04-23T03:13:21;12.80;;;6.27;;
70505;SDS011;58032;49.820;6.274;2023-04-23T03:15:49;13.52;;;7.65;;
70505;SDS011;58032;49.820;6.274;2023-04-23T03:18:16;11.77;;;6.78;;
70505;SDS011;58032;49.820;6.274;2023-04-23T03:20:47;11.90;;;6.45;;
70505;SDS011;58032;49.820;6.274;2023-04-23T03:23:15;14.73;;;7.00;;
70505;SDS011;58032;49.820;6.274;2023-04-23T03:25:43;13.97;;;7.37;;
70505;SDS011;58032;49.820;6.274;2023-04-23T03:28:10;12.00;;;7.03;;
70505;SDS011;58032;49.820;6.274;2023-04-23T03:30:37;13.80;;;7.88;;
70505;SDS011;58032;49.820;6.274;2023-04-23T03:33:04;14.57;;;7.20;;
70505;SDS011;58032;49.820;6.274;2023-04-23T03:35:31;14.55;;;7.50;;
70505;SDS011;58032;49.820;6.274;2023-04-23T03:38:00;12.37;;;7.13;;
70505;SDS011;58032;49.820;6.274;2023-04-23T03:40:27;12.73;;;7.57;;
70505;SDS011;58032;49.820;6.274;2023-04-23T03:42:57;15.57;;;7.00;;
70505;SDS011;58032;49.820;6.274;2023-04-23T03:45:41;15.80;;;8.15;;
70505;SDS011;58032;49.820;6.274;2023-04-23T03:48:09;13.20;;;7.47;;
70505;SDS011;58032;49.820;6.274;2023-04-23T03:50:36;12.57;;;7.67;;
70505;SDS011;58032;49.820;6.274;2023-04-23T03:53:22;11.77;;;6.85;;
70505;SDS011;58032;49.820;6.274;2023-04-23T03:56:12;14.63;;;7.40;;
70505;SDS011;58032;49.820;6.274;2023-04-23T03:58:47;15.38;;;7.35;;
70505;SDS011;58032;49.820;6.274;2023-04-23T04:01:14;12.52;;;7.07;;
70505;SDS011;58032;49.820;6.274;2023-04-23T04:03:41;11.03;;;6.60;;
70505;SDS011;58032;49.820;6.274;2023-04-23T04:06:07;10.63;;;6.65;;
70505;SDS011;58032;49.820;6.274;2023-04-23T04:08:35;15.07;;;7.25;;
70505;SDS011;58032;49.820;6.274;2023-04-23T04:11:01;11.10;;;6.60;;
70505;SDS011;58032;49.820;6.274;2023-04-23T04:13:28;12.35;;;6.80;;
70505;SDS011;58032;49.820;6.274;2023-04-23T04:15:55;13.67;;;6.40;;
70505;SDS011;58032;49.820;6.274;2023-04-23T04:18:22;12.57;;;7.15;;
70505;SDS011;58032;49.820;6.274;2023-04-23T04:20:49;10.98;;;6.22;;
70505;SDS011;58032;49.820;6.274;2023-04-23T04:23:17;11.30;;;5.95;;
70505;SDS011;58032;49.820;6.274;2023-04-23T04:25:44;14.10;;;6.88;;
70505;SDS011;58032;49.820;6.274;2023-04-23T04:28:11;13.13;;;6.53;;
70505;SDS011;58032;49.820;6.274;2023-04-23T04:30:38;9.23;;;5.63;;
70505;SDS011;58032;49.820;6.274;2023-04-23T04:33:05;12.00;;;6.53;;
70505;SDS011;58032;49.820;6.274;2023-04-23T04:35:32;12.27;;;7.07;;
70505;SDS011;58032;49.820;6.274;2023-04-23T04:37:59;10.15;;;6.43;;
70505;SDS011;58032;49.820;6.274;2023-04-23T04:40:26;12.23;;;6.57;;
70505;SDS011;58032;49.820;6.274;2023-04-23T04:42:54;12.80;;;7.05;;
70505;SDS011;58032;49.820;6.274;2023-04-23T04:45:20;14.48;;;7.03;;
70505;SDS011;58032;49.820;6.274;2023-04-23T04:47:48;13.05;;;7.32;;
70505;SDS011;58032;49.820;6.274;2023-04-23T04:50:15;13.35;;;7.35;;
70505;SDS011;58032;49.820;6.274;2023-04-23T04:52:42;12.50;;;7.30;;
70505;SDS011;58032;49.820;6.274;2023-04-23T04:55:09;11.25;;;7.03;;
70505;SDS011;58032;49.820;6.274;2023-04-23T04:57:36;12.20;;;6.57;;
70505;SDS011;58032;49.820;6.274;2023-04-23T05:00:17;12.10;;;6.57;;
70505;SDS011;58032;49.820;6.274;2023-04-23T05:02:49;10.85;;;6.43;;
70505;SDS011;58032;49.820;6.274;2023-04-23T05:05:17;14.80;;;6.73;;
70505;SDS011;58032;49.820;6.274;2023-04-23T05:07:44;12.80;;;6.57;;
70505;SDS011;58032;49.820;6.274;2023-04-23T05:10:12;9.93;;;6.30;;
70505;SDS011;58032;49.820;6.274;2023-04-23T05:12:40;14.57;;;6.63;;
70505;SDS011;58032;49.820;6.274;2023-04-23T05:15:10;14.40;;;6.78;;
70505;SDS011;58032;49.820;6.274;2023-04-23T05:17:42;13.32;;;6.85;;
70505;SDS011;58032;49.820;6.274;2023-04-23T05:20:09;11.90;;;6.55;;
70505;SDS011;58032;49.820;6.274;2023-04-23T05:22:37;10.17;;;5.80;;
70505;SDS011;58032;49.820;6.274;2023-04-23T05:25:04;11.15;;;6.50;;
70505;SDS011;58032;49.820;6.274;2023-04-23T05:27:32;10.95;;;6.25;;
70505;SDS011;58032;49.820;6.274;2023-04-23T05:30:03;11.77;;;6.47;;
70505;SDS011;58032;49.820;6.274;2023-04-23T05:32:32;12.85;;;6.25;;
70505;SDS011;58032;49.820;6.274;2023-04-23T05:34:59;10.57;;;6.40;;
70505;SDS011;58032;49.820;6.274;2023-04-23T05:37:29;11.35;;;5.65;;
70505;SDS011;58032;49.820;6.274;2023-04-23T05:39:56;11.95;;;6.13;;
70505;SDS011;58032;49.820;6.274;2023-04-23T05:42:30;11.20;;;5.65;;
70505;SDS011;58032;49.820;6.274;2023-04-23T05:44:57;8.82;;;5.50;;
70505;SDS011;58032;49.820;6.274;2023-04-23T05:47:24;9.90;;;5.40;;
70505;SDS011;58032;49.820;6.274;2023-04-23T05:49:51;9.23;;;5.22;;
70505;SDS011;58032;49.820;6.274;2023-04-23T05:52:18;9.27;;;5.13;;
70505;SDS011;58032;49.820;6.274;2023-04-23T05:54:45;8.77;;;5.15;;
70505;SDS011;58032;49.820;6.274;2023-04-23T05:57:11;10.45;;;5.25;;
70505;SDS011;58032;49.820;6.274;2023-04-23T05:59:38;8.13;;;4.87;;
70505;SDS011;58032;49.820;6.274;2023-04-23T06:02:06;10.70;;;5.35;;
70505;SDS011;58032;49.820;6.274;2023-04-23T06:04:34;10.43;;;4.85;;
70505;SDS011;58032;49.820;6.274;2023-04-23T06:07:02;8.32;;;4.88;;
70505;SDS011;58032;49.820;6.274;2023-04-23T06:09:29;8.48;;;4.13;;
70505;SDS011;58032;49.820;6.274;2023-04-23T06:11:56;8.53;;;4.60;;
70505;SDS011;58032;49.820;6.274;2023-04-23T06:14:23;9.30;;;4.28;;
70505;SDS011;58032;49.820;6.274;2023-04-23T06:16:50;8.82;;;4.28;;
70505;SDS011;58032;49.820;6.274;2023-04-23T06:19:17;7.28;;;4.25;;
70505;SDS011;58032;49.820;6.274;2023-04-23T06:21:43;8.75;;;4.95;;
70505;SDS011;58032;49.820;6.274;2023-04-23T06:24:10;7.83;;;5.10;;
70505;SDS011;58032;49.820;6.274;2023-04-23T06:26:37;10.48;;;4.82;;
70505;SDS011;58032;49.820;6.274;2023-04-23T06:29:11;11.27;;;5.38;;
70505;SDS011;58032;49.820;6.274;2023-04-23T06:31:53;8.20;;;4.97;;
70505;SDS011;58032;49.820;6.274;2023-04-23T06:34:22;8.90;;;5.13;;
70505;SDS011;58032;49.820;6.274;2023-04-23T06:36:49;8.97;;;5.07;;
70505;SDS011;58032;49.820;6.274;2023-04-23T06:39:17;10.52;;;4.90;;
70505;SDS011;58032;49.820;6.274;2023-04-23T06:41:44;8.35;;;4.35;;
70505;SDS011;58032;49.820;6.274;2023-04-23T06:44:33;9.93;;;4.65;;
70505;SDS011;58032;49.820;6.274;2023-04-23T06:47:01;11.90;;;4.60;;
70505;SDS011;58032;49.820;6.274;2023-04-23T06:49:28;9.70;;;4.10;;
70505;SDS011;58032;49.820;6.274;2023-04-23T06:51:55;12.27;;;4.90;;
70505;SDS011;58032;49.820;6.274;2023-04-23T06:54:23;10.70;;;4.10;;
70505;SDS011;58032;49.820;6.274;2023-04-23T06:56:50;7.90;;;4.00;;
70505;SDS011;58032;49.820;6.274;2023-04-23T06:59:16;12.60;;;4.10;;
70505;SDS011;58032;49.820;6.274;2023-04-23T07:01:48;7.83;;;3.23;;
70505;SDS011;58032;49.820;6.274;2023-04-23T07:04:15;6.32;;;3.13;;
70505;SDS011;58032;49.820;6.274;2023-04-23T07:06:42;6.82;;;2.85;;
70505;SDS011;58032;49.820;6.274;2023-04-23T07:09:08;7.20;;;3.30;;
70505;SDS011;58032;49.820;6.274;2023-04-23T07:11:35;6.38;;;2.65;;
70505;SDS011;58032;49.820;6.274;2023-04-23T07:14:02;7.63;;;3.00;;
70505;SDS011;58032;49.820;6.274;2023-04-23T07:16:29;7.80;;;3.03;;
70505;SDS011;58032;49.820;6.274;2023-04-23T07:18:59;7.55;;;2.90;;
70505;SDS011;58032;49.820;6.274;2023-04-23T07:21:27;7.13;;;2.70;;
70505;SDS011;58032;49.820;6.274;2023-04-23T07:23:55;6.55;;;2.92;;
70505;SDS011;58032;49.820;6.274;2023-04-23T07:26:23;7.17;;;3.20;;
70505;SDS011;58032;49.820;6.274;2023-04-23T07:28:50;8.60;;;3.40;;
70505;SDS011;58032;49.820;6.274;2023-04-23T07:31:18;5.57;;;3.28;;
70505;SDS011;58032;49.820;6.274;2023-04-23T07:33:45;8.73;;;2.90;;
70505;SDS011;58032;49.820;6.274;2023-04-23T07:36:13;5.07;;;3.17;;
70505;SDS011;58032;49.820;6.274;2023-04-23T07:38:40;8.40;;;3.57;;
70505;SDS011;58032;49.820;6.274;2023-04-23T07:41:06;8.30;;;3.95;;
70505;SDS011;58032;49.820;6.274;2023-04-23T07:43:33;5.55;;;3.20;;
70505;SDS011;58032;49.820;6.274;2023-04-23T07:46:00;5.90;;;3.67;;
70505;SDS011;58032;49.820;6.274;2023-04-23T07:48:27;8.73;;;2.90;;
70505;SDS011;58032;49.820;6.274;2023-04-23T07:50:54;7.07;;;2.83;;
70505;SDS011;58032;49.820;6.274;2023-04-23T07:53:22;7.00;;;2.38;;
70505;SDS011;58032;49.820;6.274;2023-04-23T07:55:48;6.97;;;2.83;;
70505;SDS011;58032;49.820;6.274;2023-04-23T07:58:15;7.88;;;2.47;;
70505;SDS011;58032;49.820;6.274;2023-04-23T08:00:42;6.57;;;2.40;;
70505;SDS011;58032;49.820;6.274;2023-04-23T08:03:09;6.13;;;2.77;;
70505;SDS011;58032;49.820;6.274;2023-04-23T08:05:36;36.05;;;12.90;;
70505;SDS011;58032;49.820;6.274;2023-04-23T08:08:04;24.27;;;9.55;;
70505;SDS011;58032;49.820;6.274;2023-04-23T08:10:31;16.60;;;5.22;;
70505;SDS011;58032;49.820;6.274;2023-04-23T08:12:58;7.60;;;3.42;;
70505;SDS011;58032;49.820;6.274;2023-04-23T08:15:25;12.40;;;4.30;;
70505;SDS011;58032;49.820;6.274;2023-04-23T08:17:52;4.55;;;1.85;;
70505;SDS011;58032;49.820;6.274;2023-04-23T08:20:19;6.97;;;2.75;;
70505;SDS011;58032;49.820;6.274;2023-04-23T08:22:46;6.20;;;2.40;;
70505;SDS011;58032;49.820;6.274;2023-04-23T08:25:13;8.13;;;2.80;;
70505;SDS011;58032;49.820;6.274;2023-04-23T08:27:39;6.57;;;2.10;;
70505;SDS011;58032;49.820;6.274;2023-04-23T08:30:06;7.53;;;2.20;;
70505;SDS011;58032;49.820;6.274;2023-04-23T08:32:34;6.10;;;2.90;;
70505;SDS011;58032;49.820;6.274;2023-04-23T08:35:00;7.25;;;2.45;;
70505;SDS011;58032;49.820;6.274;2023-04-23T08:37:27;5.78;;;2.72;;
70505;SDS011;58032;49.820;6.274;2023-04-23T08:39:56;7.60;;;2.40;;
70505;SDS011;58032;49.820;6.274;2023-04-23T08:42:25;6.28;;;2.58;;
70505;SDS011;58032;49.820;6.274;2023-04-23T08:45:02;5.00;;;2.63;;
70505;SDS011;58032;49.820;6.274;2023-04-23T08:47:29;7.63;;;2.80;;
70505;SDS011;58032;49.820;6.274;2023-04-23T08:49:58;7.07;;;2.20;;
70505;SDS011;58032;49.820;6.274;2023-04-23T08:52:25;7.23;;;2.57;;
70505;SDS011;58032;49.820;6.274;2023-04-23T08:54:59;5.57;;;2.45;;
70505;SDS011;58032;49.820;6.274;2023-04-23T08:57:26;7.22;;;3.00;;
70505;SDS011;58032;49.820;6.274;2023-04-23T08:59:54;5.03;;;2.67;;
70505;SDS011;58032;49.820;6.274;2023-04-23T09:02:21;7.00;;;2.53;;
70505;SDS011;58032;49.820;6.274;2023-04-23T09:04:48;7.37;;;2.50;;
70505;SDS011;58032;49.820;6.274;2023-04-23T09:07:16;3.97;;;2.10;;
70505;SDS011;58032;49.820;6.274;2023-04-23T09:09:43;5.38;;;2.25;;
70505;SDS011;58032;49.820;6.274;2023-04-23T09:12:10;5.32;;;2.65;;
70505;SDS011;58032;49.820;6.274;2023-04-23T09:14:37;5.80;;;2.80;;
70505;SDS011;58032;49.820;6.274;2023-04-23T09:17:04;7.33;;;2.37;;
70505;SDS011;58032;49.820;6.274;2023-04-23T09:19:31;5.82;;;2.70;;
70505;SDS011;58032;49.820;6.274;2023-04-23T09:21:58;11.27;;;3.00;;
70505;SDS011;58032;49.820;6.274;2023-04-23T09:24:27;4.80;;;1.88;;
70505;SDS011;58032;49.820;6.274;2023-04-23T09:27:13;7.21;;;2.40;;
70505;SDS011;58032;49.820;6.274;2023-04-23T09:29:48;6.63;;;1.85;;
70505;SDS011;58032;49.820;6.274;2023-04-23T09:32:20;6.60;;;2.60;;
70505;SDS011;58032;49.820;6.274;2023-04-23T09:34:57;6.78;;;2.30;;
70505;SDS011;58032;49.820;6.274;2023-04-23T09:37:24;6.30;;;2.47;;
70505;SDS011;58032;49.820;6.274;2023-04-23T09:39:52;6.15;;;2.40;;
70505;SDS011;58032;49.820;6.274;2023-04-23T09:42:22;5.30;;;2.83;;
70505;SDS011;58032;49.820;6.274;2023-04-23T09:44:56;9.47;;;2.40;;
70505;SDS011;58032;49.820;6.274;2023-04-23T09:47:25;7.13;;;2.55;;
70505;SDS011;58032;49.820;6.274;2023-04-23T09:49:52;5.15;;;2.63;;
70505;SDS011;58032;49.820;6.274;2023-04-23T09:52:19;5.75;;;2.80;;
70505;SDS011;58032;49.820;6.274;2023-04-23T09:54:48;5.85;;;2.35;;
70505;SDS011;58032;49.820;6.274;2023-04-23T09:57:15;5.60;;;2.70;;
70505;SDS011;58032;49.820;6.274;2023-04-23T09:59:42;4.90;;;2.05;;
70505;SDS011;58032;49.820;6.274;2023-04-23T10:02:13;6.22;;;2.15;;
70505;SDS011;58032;49.820;6.274;2023-04-23T10:04:39;7.07;;;2.92;;
70505;SDS011;58032;49.820;6.274;2023-04-23T10:07:07;5.85;;;2.35;;
70505;SDS011;58032;49.820;6.274;2023-04-23T10:09:41;6.07;;;2.53;;
70505;SDS011;58032;49.820;6.274;2023-04-23T10:12:08;4.50;;;2.47;;
70505;SDS011;58032;49.820;6.274;2023-04-23T10:14:43;7.20;;;2.78;;
70505;SDS011;58032;49.820;6.274;2023-04-23T10:17:11;5.65;;;2.10;;
70505;SDS011;58032;49.820;6.274;2023-04-23T10:19:39;5.68;;;2.65;;
70505;SDS011;58032;49.820;6.274;2023-04-23T10:22:09;6.27;;;2.53;;
70505;SDS011;58032;49.820;6.274;2023-04-23T10:24:44;6.97;;;2.50;;
70505;SDS011;58032;49.820;6.274;2023-04-23T10:27:13;4.85;;;2.00;;
70505;SDS011;58032;49.820;6.274;2023-04-23T10:29:50;7.50;;;2.45;;
70505;SDS011;58032;49.820;6.274;2023-04-23T10:32:19;3.80;;;1.80;;
70505;SDS011;58032;49.820;6.274;2023-04-23T10:34:46;5.03;;;1.63;;
70505;SDS011;58032;49.820;6.274;2023-04-23T10:37:13;4.32;;;1.55;;
70505;SDS011;58032;49.820;6.274;2023-04-23T10:39:42;8.90;;;1.85;;
70505;SDS011;58032;49.820;6.274;2023-04-23T10:42:10;5.28;;;1.98;;
70505;SDS011;58032;49.820;6.274;2023-04-23T10:44:40;4.07;;;1.48;;
70505;SDS011;58032;49.820;6.274;2023-04-23T10:47:12;4.60;;;1.50;;
70505;SDS011;58032;49.820;6.274;2023-04-23T10:49:41;2.85;;;1.33;;
70505;SDS011;58032;49.820;6.274;2023-04-23T10:52:13;4.68;;;1.90;;
70505;SDS011;58032;49.820;6.274;2023-04-23T10:54:47;7.43;;;2.10;;
70505;SDS011;58032;49.820;6.274;2023-04-23T10:57:15;5.57;;;2.28;;
70505;SDS011;58032;49.820;6.274;2023-04-23T10:59:52;4.57;;;1.33;;
70505;SDS011;58032;49.820;6.274;2023-04-23T11:02:22;6.63;;;1.80;;
70505;SDS011;58032;49.820;6.274;2023-04-23T11:04:53;4.03;;;1.50;;
70505;SDS011;58032;49.820;6.274;2023-04-23T11:07:29;5.32;;;1.40;;
70505;SDS011;58032;49.820;6.274;2023-04-23T11:09:58;3.92;;;1.38;;
70505;SDS011;58032;49.820;6.274;2023-04-23T11:14:53;6.70;;;1.23;;
70505;SDS011;58032;49.820;6.274;2023-04-23T11:18:07;4.70;;;1.10;;
70505;SDS011;58032;49.820;6.274;2023-04-23T11:20:13;2.97;;;1.02;;
70505;SDS011;58032;49.820;6.274;2023-04-23T11:22:47;6.22;;;1.17;;
70505;SDS011;58032;49.820;6.274;2023-04-23T11:25:22;5.30;;;1.40;;
70505;SDS011;58032;49.820;6.274;2023-04-23T11:27:52;4.13;;;1.10;;
70505;SDS011;58032;49.820;6.274;2023-04-23T11:30:24;3.78;;;0.93;;
70505;SDS011;58032;49.820;6.274;2023-04-23T11:32:53;4.65;;;0.93;;
70505;SDS011;58032;49.820;6.274;2023-04-23T11:35:22;2.40;;;0.90;;
70505;SDS011;58032;49.820;6.274;2023-04-23T11:37:55;2.70;;;0.80;;
70505;SDS011;58032;49.820;6.274;2023-04-23T11:40:22;3.63;;;1.30;;
70505;SDS011;58032;49.820;6.274;2023-04-23T11:42:52;4.82;;;1.23;;
70505;SDS011;58032;49.820;6.274;2023-04-23T11:45:24;4.47;;;1.42;;
70505;SDS011;58032;49.820;6.274;2023-04-23T11:47:56;8.02;;;1.45;;
70505;SDS011;58032;49.820;6.274;2023-04-23T11:50:25;3.13;;;1.07;;
70505;SDS011;58032;49.820;6.274;2023-04-23T11:52:52;4.50;;;1.40;;
70505;SDS011;58032;49.820;6.274;2023-04-23T11:55:20;3.80;;;1.60;;
70505;SDS011;58032;49.820;6.274;2023-04-23T11:57:48;4.15;;;1.58;;
70505;SDS011;58032;49.820;6.274;2023-04-23T12:00:17;5.88;;;1.42;;
70505;SDS011;58032;49.820;6.274;2023-04-23T12:05:20;4.10;;;1.63;;
70505;SDS011;58032;49.820;6.274;2023-04-23T12:07:51;4.25;;;1.40;;
70505;SDS011;58032;49.820;6.274;2023-04-23T12:10:19;4.15;;;1.58;;
70505;SDS011;58032;49.820;6.274;2023-04-23T12:12:50;3.50;;;1.20;;
70505;SDS011;58032;49.820;6.274;2023-04-23T12:15:18;3.47;;;1.20;;
70505;SDS011;58032;49.820;6.274;2023-04-23T12:17:49;3.75;;;1.40;;
70505;SDS011;58032;49.820;6.274;2023-04-23T12:20:18;3.65;;;1.80;;
70505;SDS011;58032;49.820;6.274;2023-04-23T12:22:46;3.90;;;1.38;;
70505;SDS011;58032;49.820;6.274;2023-04-23T12:25:13;3.92;;;1.73;;
70505;SDS011;58032;49.820;6.274;2023-04-23T12:27:43;3.80;;;1.50;;
70505;SDS011;58032;49.820;6.274;2023-04-23T12:30:10;4.07;;;1.73;;
70505;SDS011;58032;49.820;6.274;2023-04-23T12:32:38;3.75;;;1.33;;
70505;SDS011;58032;49.820;6.274;2023-04-23T12:35:05;3.33;;;1.10;;
70505;SDS011;58032;49.820;6.274;2023-04-23T12:37:33;3.50;;;1.10;;
70505;SDS011;58032;49.820;6.274;2023-04-23T12:40:03;4.97;;;1.30;;
70505;SDS011;58032;49.820;6.274;2023-04-23T12:42:32;4.10;;;1.05;;
70505;SDS011;58032;49.820;6.274;2023-04-23T12:45:04;3.40;;;1.10;;
70505;SDS011;58032;49.820;6.274;2023-04-23T12:47:32;2.53;;;0.80;;
70505;SDS011;58032;49.820;6.274;2023-04-23T12:49:59;3.75;;;1.10;;
70505;SDS011;58032;49.820;6.274;2023-04-23T12:52:27;6.43;;;1.10;;
70505;SDS011;58032;49.820;6.274;2023-04-23T12:54:54;5.68;;;1.00;;
70505;SDS011;58032;49.820;6.274;2023-04-23T12:57:23;3.50;;;0.90;;
70505;SDS011;58032;49.820;6.274;2023-04-23T12:59:50;3.30;;;1.17;;
70505;SDS011;58032;49.820;6.274;2023-04-23T13:02:17;2.72;;;0.80;;
70505;SDS011;58032;49.820;6.274;2023-04-23T13:04:45;3.47;;;1.57;;
70505;SDS011;58032;49.820;6.274;2023-04-23T13:07:11;3.97;;;1.10;;
70505;SDS011;58032;49.820;6.274;2023-04-23T13:09:39;4.03;;;1.30;;
70505;SDS011;58032;49.820;6.274;2023-04-23T13:12:06;4.00;;;1.42;;
70505;SDS011;58032;49.820;6.274;2023-04-23T13:14:33;3.95;;;1.45;;
70505;SDS011;58032;49.820;6.274;2023-04-23T13:16:59;4.80;;;1.80;;
70505;SDS011;58032;49.820;6.274;2023-04-23T13:19:26;3.72;;;1.60;;
70505;SDS011;58032;49.820;6.274;2023-04-23T13:21:53;3.45;;;1.30;;
70505;SDS011;58032;49.820;6.274;2023-04-23T13:24:20;4.03;;;1.33;;
70505;SDS011;58032;49.820;6.274;2023-04-23T13:26:47;2.95;;;1.40;;
70505;SDS011;58032;49.820;6.274;2023-04-23T13:29:13;8.20;;;1.67;;
70505;SDS011;58032;49.820;6.274;2023-04-23T13:31:41;3.22;;;1.30;;
70505;SDS011;58032;49.820;6.274;2023-04-23T13:34:08;3.60;;;0.90;;
70505;SDS011;58032;49.820;6.274;2023-04-23T13:36:35;5.50;;;1.30;;
70505;SDS011;58032;49.820;6.274;2023-04-23T13:39:02;3.55;;;1.13;;
70505;SDS011;58032;49.820;6.274;2023-04-23T13:41:29;2.50;;;0.80;;
70505;SDS011;58032;49.820;6.274;2023-04-23T13:43:56;3.47;;;0.95;;
70505;SDS011;58032;49.820;6.274;2023-04-23T13:46:23;5.45;;;1.00;;
70505;SDS011;58032;49.820;6.274;2023-04-23T13:48:51;4.75;;;1.23;;
70505;SDS011;58032;49.820;6.274;2023-04-23T13:51:19;3.92;;;1.20;;
70505;SDS011;58032;49.820;6.274;2023-04-23T13:53:59;3.53;;;0.70;;
70505;SDS011;58032;49.820;6.274;2023-04-23T13:56:30;2.75;;;0.98;;
70505;SDS011;58032;49.820;6.274;2023-04-23T13:58:58;2.35;;;1.05;;
70505;SDS011;58032;49.820;6.274;2023-04-23T14:01:31;2.85;;;1.10;;
70505;SDS011;58032;49.820;6.274;2023-04-23T14:03:58;4.15;;;1.33;;
70505;SDS011;58032;49.820;6.274;2023-04-23T14:06:27;2.60;;;1.10;;
70505;SDS011;58032;49.820;6.274;2023-04-23T14:08:54;3.72;;;1.15;;
70505;SDS011;58032;49.820;6.274;2023-04-23T14:11:22;2.90;;;1.30;;
70505;SDS011;58032;49.820;6.274;2023-04-23T14:13:48;2.90;;;1.00;;
70505;SDS011;58032;49.820;6.274;2023-04-23T14:16:17;2.83;;;1.10;;
70505;SDS011;58032;49.820;6.274;2023-04-23T14:18:44;2.27;;;0.90;;
70505;SDS011;58032;49.820;6.274;2023-04-23T14:21:14;4.80;;;2.13;;
70505;SDS011;58032;49.820;6.274;2023-04-23T14:23:54;3.72;;;1.15;;
70505;SDS011;58032;49.820;6.274;2023-04-23T14:29:07;2.10;;;0.90;;
70505;SDS011;58032;49.820;6.274;2023-04-23T14:31:40;2.97;;;1.07;;
70505;SDS011;58032;49.820;6.274;2023-04-23T14:34:08;2.92;;;0.88;;
70505;SDS011;58032;49.820;6.274;2023-04-23T14:36:35;4.53;;;1.65;;
70505;SDS011;58032;49.820;6.274;2023-04-23T14:39:04;3.53;;;1.33;;
70505;SDS011;58032;49.820;6.274;2023-04-23T14:41:32;4.30;;;1.50;;
70505;SDS011;58032;49.820;6.274;2023-04-23T14:44:00;5.27;;;1.57;;
70505;SDS011;58032;49.820;6.274;2023-04-23T14:46:27;3.05;;;1.40;;
70505;SDS011;58032;49.820;6.274;2023-04-23T14:48:55;3.50;;;1.60;;
70505;SDS011;58032;49.820;6.274;2023-04-23T14:51:22;3.50;;;1.67;;
70505;SDS011;58032;49.820;6.274;2023-04-23T14:53:51;4.07;;;1.65;;
70505;SDS011;58032;49.820;6.274;2023-04-23T14:56:19;4.27;;;1.67;;
70505;SDS011;58032;49.820;6.274;2023-04-23T14:58:46;3.53;;;1.60;;